sensor_id;sensor_type;location;lat;lon;timestamp;pressure;altitude;pressure_sealevel;temperature;humidity
69402;BME280;56589;51.992;5.924;2023-03-25T00:00:03;99570.88;;;8.85;74.02
69402;BME280;56589;51.992;5.924;2023-03-25T00:02:30;99577.19;;;8.83;73.85
69402;BME280;56589;51.992;5.924;2023-03-25T00:04:56;99580.75;;;8.82;73.89
69402;BME280;56589;51.992;5.924;2023-03-25T00:07:22;99578.97;;;8.82;73.46
69402;BME280;56589;51.992;5.924;2023-03-25T00:09:48;99585.97;;;8.82;73.85
69402;BME280;56589;51.992;5.924;2023-03-25T00:12:14;99573.13;;;8.79;73.39
69402;BME280;56589;51.992;5.924;2023-03-25T00:14:41;99574.09;;;8.78;73.76
69402;BME280;56589;51.992;5.924;2023-03-25T00:17:12;99574.09;;;8.78;74.06
69402;BME280;56589;51.992;5.924;2023-03-25T00:19:38;99571.59;;;8.76;73.57
69402;BME280;56589;51.992;5.924;2023-03-25T00:22:04;99573.47;;;8.74;73.71
69402;BME280;56589;51.992;5.924;2023-03-25T00:24:30;99573.47;;;8.74;74.19
69402;BME280;56589;51.992;5.924;2023-03-25T00:26:55;99568.25;;;8.74;73.84
69402;BME280;56589;51.992;5.924;2023-03-25T00:29:21;99565.03;;;8.71;73.82
69402;BME280;56589;51.992;5.924;2023-03-25T00:31:47;99568.50;;;8.71;73.87
69402;BME280;56589;51.992;5.924;2023-03-25T00:34:15;99568.50;;;8.71;73.98
69402;BME280;56589;51.992;5.924;2023-03-25T00:36:41;99570.16;;;8.72;74.03
69402;BME280;56589;51.992;5.924;2023-03-25T00:39:08;99563.97;;;8.73;74.30
69402;BME280;56589;51.992;5.924;2023-03-25T00:41:34;99565.75;;;8.73;73.82
69402;BME280;56589;51.992;5.924;2023-03-25T00:44:01;99566.59;;;8.73;73.83
69402;BME280;56589;51.992;5.924;2023-03-25T00:46:29;99569.19;;;8.73;74.07
69402;BME280;56589;51.992;5.924;2023-03-25T00:48:58;99566.69;;;8.72;74.16
69402;BME280;56589;51.992;5.924;2023-03-25T00:51:28;99564.91;;;8.72;73.78
69402;BME280;56589;51.992;5.924;2023-03-25T00:53:55;99564.09;;;8.72;74.16
69402;BME280;56589;51.992;5.924;2023-03-25T00:56:22;99561.34;;;8.73;73.97
69402;BME280;56589;51.992;5.924;2023-03-25T00:58:48;99560.50;;;8.73;73.92
69402;BME280;56589;51.992;5.924;2023-03-25T01:01:16;99564.91;;;8.72;74.14
69402;BME280;56589;51.992;5.924;2023-03-25T01:03:44;99565.75;;;8.73;73.56
69402;BME280;56589;51.992;5.924;2023-03-25T01:06:10;99558.84;;;8.72;73.59
69402;BME280;56589;51.992;5.924;2023-03-25T01:08:41;99560.63;;;8.71;73.69
69402;BME280;56589;51.992;5.924;2023-03-25T01:11:16;99552.78;;;8.71;73.72
69402;BME280;56589;51.992;5.924;2023-03-25T01:13:45;99550.88;;;8.73;73.96
69402;BME280;56589;51.992;5.924;2023-03-25T01:16:11;99551.00;;;8.72;73.58
69402;BME280;56589;51.992;5.924;2023-03-25T01:18:37;99551.84;;;8.72;73.70
69402;BME280;56589;51.992;5.924;2023-03-25T01:21:04;99551.84;;;8.72;73.66
69402;BME280;56589;51.992;5.924;2023-03-25T01:23:30;99544.94;;;8.71;73.41
69402;BME280;56589;51.992;5.924;2023-03-25T01:26:00;99548.50;;;8.70;73.33
69402;BME280;56589;51.992;5.924;2023-03-25T01:28:26;99551.13;;;8.70;73.19
69402;BME280;56589;51.992;5.924;2023-03-25T01:30:59;99550.88;;;8.73;73.23
69402;BME280;56589;51.992;5.924;2023-03-25T01:33:25;99561.34;;;8.73;73.12
69402;BME280;56589;51.992;5.924;2023-03-25T01:35:51;99556.13;;;8.73;73.04
69402;BME280;56589;51.992;5.924;2023-03-25T01:38:17;99552.66;;;8.73;72.98
69402;BME280;56589;51.992;5.924;2023-03-25T01:40:44;99539.59;;;8.73;73.27
69402;BME280;56589;51.992;5.924;2023-03-25T01:43:13;99544.94;;;8.71;73.18
69402;BME280;56589;51.992;5.924;2023-03-25T01:45:39;99546.72;;;8.71;72.66
69402;BME280;56589;51.992;5.924;2023-03-25T01:48:08;99551.97;;;8.71;72.94
69402;BME280;56589;51.992;5.924;2023-03-25T01:50:41;99537.19;;;8.69;72.96
69402;BME280;56589;51.992;5.924;2023-03-25T01:53:10;99539.81;;;8.69;72.62
69402;BME280;56589;51.992;5.924;2023-03-25T01:55:37;99539.09;;;8.67;72.50
69402;BME280;56589;51.992;5.924;2023-03-25T01:58:07;99540.75;;;8.68;72.75
69402;BME280;56589;51.992;5.924;2023-03-25T02:00:38;99540.75;;;8.68;72.54
69402;BME280;56589;51.992;5.924;2023-03-25T02:03:05;99541.50;;;8.71;72.34
69402;BME280;56589;51.992;5.924;2023-03-25T02:05:36;99550.25;;;8.69;72.44
69402;BME280;56589;51.992;5.924;2023-03-25T02:08:07;99539.81;;;8.69;72.99
69402;BME280;56589;51.992;5.924;2023-03-25T02:10:33;99545.28;;;8.66;73.24
69402;BME280;56589;51.992;5.924;2023-03-25T02:13:01;99538.59;;;8.62;73.47
69402;BME280;56589;51.992;5.924;2023-03-25T02:15:32;99536.94;;;8.61;73.78
69402;BME280;56589;51.992;5.924;2023-03-25T02:18:26;99551.31;;;8.56;73.56
69402;BME280;56589;51.992;5.924;2023-03-25T02:21:29;99538.50;;;8.53;73.63
69402;BME280;56589;51.992;5.924;2023-03-25T02:24:41;99538.00;;;8.48;74.27
69402;BME280;56589;51.992;5.924;2023-03-25T02:27:31;99540.13;;;8.42;74.22
69402;BME280;56589;51.992;5.924;2023-03-25T02:30:34;99535.84;;;8.41;74.35
69402;BME280;56589;51.992;5.924;2023-03-25T02:33:49;99542.13;;;8.39;74.97
69402;BME280;56589;51.992;5.924;2023-03-25T02:39:47;99536.41;;;8.34;74.85
69402;BME280;56589;51.992;5.924;2023-03-25T02:42:23;99535.94;;;8.29;75.31
69402;BME280;56589;51.992;5.924;2023-03-25T02:44:59;99542.31;;;8.25;75.48
69402;BME280;56589;51.992;5.924;2023-03-25T02:47:33;99532.31;;;8.19;75.83
69402;BME280;56589;51.992;5.924;2023-03-25T02:50:04;99528.25;;;8.14;76.14
69402;BME280;56589;51.992;5.924;2023-03-25T02:52:37;99540.72;;;8.11;76.03
69402;BME280;56589;51.992;5.924;2023-03-25T02:55:12;99529.78;;;8.06;76.52
69402;BME280;56589;51.992;5.924;2023-03-25T02:57:44;99526.66;;;8.01;76.66
69402;BME280;56589;51.992;5.924;2023-03-25T03:00:15;99523.97;;;8.02;76.96
69402;BME280;56589;51.992;5.924;2023-03-25T03:02:49;99523.97;;;8.02;76.79
69402;BME280;56589;51.992;5.924;2023-03-25T03:05:21;99517.16;;;8.00;76.70
69402;BME280;56589;51.992;5.924;2023-03-25T03:07:53;99530.22;;;8.00;77.08
69402;BME280;56589;51.992;5.924;2023-03-25T03:10:36;99519.91;;;7.98;76.85
69402;BME280;56589;51.992;5.924;2023-03-25T03:13:17;99517.28;;;7.98;76.63
69402;BME280;56589;51.992;5.924;2023-03-25T03:15:54;99522.72;;;7.95;77.10
69402;BME280;56589;51.992;5.924;2023-03-25T03:18:40;99524.63;;;7.93;77.24
69402;BME280;56589;51.992;5.924;2023-03-25T03:21:12;99521.28;;;7.91;77.08
69402;BME280;56589;51.992;5.924;2023-03-25T03:23:49;99523.41;;;7.86;77.22
69402;BME280;56589;51.992;5.924;2023-03-25T03:26:25;99518.19;;;7.86;77.24
69402;BME280;56589;51.992;5.924;2023-03-25T03:29:00;99522.44;;;7.87;77.50
69402;BME280;56589;51.992;5.924;2023-03-25T03:31:37;99513.78;;;7.86;77.61
69402;BME280;56589;51.992;5.924;2023-03-25T03:34:09;99501.78;;;7.84;77.45
69402;BME280;56589;51.992;5.924;2023-03-25T03:36:42;99516.50;;;7.85;77.91
69402;BME280;56589;51.992;5.924;2023-03-25T03:39:15;99515.31;;;7.78;77.74
69402;BME280;56589;51.992;5.924;2023-03-25T03:41:52;99519.66;;;7.77;78.02
69402;BME280;56589;51.992;5.924;2023-03-25T03:44:25;99514.44;;;7.77;77.93
69402;BME280;56589;51.992;5.924;2023-03-25T03:46:59;99521.44;;;7.77;78.14
69402;BME280;56589;51.992;5.924;2023-03-25T03:49:34;99518.00;;;7.76;78.03
69402;BME280;56589;51.992;5.924;2023-03-25T03:52:08;99512.78;;;7.76;78.31
69402;BME280;56589;51.992;5.924;2023-03-25T03:54:42;99519.06;;;7.74;78.47
69402;BME280;56589;51.992;5.924;2023-03-25T03:57:18;99512.91;;;7.75;78.28
69402;BME280;56589;51.992;5.924;2023-03-25T03:59:55;99510.41;;;7.73;78.75
69402;BME280;56589;51.992;5.924;2023-03-25T04:02:32;99523.34;;;7.75;78.65
69402;BME280;56589;51.992;5.924;2023-03-25T04:05:03;99518.13;;;7.75;78.53
69402;BME280;56589;51.992;5.924;2023-03-25T04:07:33;99521.56;;;7.75;78.84
69402;BME280;56589;51.992;5.924;2023-03-25T04:10:08;99519.56;;;7.79;78.96
69402;BME280;56589;51.992;5.924;2023-03-25T04:12:42;99522.19;;;7.79;78.97
69402;BME280;56589;51.992;5.924;2023-03-25T04:15:13;99519.34;;;7.82;78.96
69402;BME280;56589;51.992;5.924;2023-03-25T04:17:41;99525.31;;;7.84;78.92
69402;BME280;56589;51.992;5.924;2023-03-25T04:20:09;99511.38;;;7.83;78.47
69402;BME280;56589;51.992;5.924;2023-03-25T04:22:38;99510.47;;;7.84;78.83
69402;BME280;56589;51.992;5.924;2023-03-25T04:25:05;99513.06;;;7.84;78.78
69402;BME280;56589;51.992;5.924;2023-03-25T04:27:31;99514.63;;;7.87;78.27
69402;BME280;56589;51.992;5.924;2023-03-25T04:30:00;99506.06;;;7.85;78.34
69402;BME280;56589;51.992;5.924;2023-03-25T04:32:25;99511.16;;;7.86;78.71
69402;BME280;56589;51.992;5.924;2023-03-25T04:34:51;99497.97;;;7.88;78.28
69402;BME280;56589;51.992;5.924;2023-03-25T04:37:17;99510.34;;;7.86;78.77
69402;BME280;56589;51.992;5.924;2023-03-25T04:39:43;99512.00;;;7.87;78.66
69402;BME280;56589;51.992;5.924;2023-03-25T04:42:09;99517.22;;;7.87;78.42
69402;BME280;56589;51.992;5.924;2023-03-25T04:44:35;99512.84;;;7.87;78.49
69402;BME280;56589;51.992;5.924;2023-03-25T04:47:04;99505.00;;;7.87;78.35
69402;BME280;56589;51.992;5.924;2023-03-25T04:49:32;99498.94;;;7.87;78.35
69402;BME280;56589;51.992;5.924;2023-03-25T04:51:58;99505.22;;;7.84;79.02
69402;BME280;56589;51.992;5.924;2023-03-25T04:54:24;99499.19;;;7.84;78.47
69402;BME280;56589;51.992;5.924;2023-03-25T04:56:51;99493.72;;;7.87;78.73
69402;BME280;56589;51.992;5.924;2023-03-25T04:59:18;99499.75;;;7.87;78.49
69402;BME280;56589;51.992;5.924;2023-03-25T05:01:45;99495.38;;;7.88;78.61
69402;BME280;56589;51.992;5.924;2023-03-25T05:04:15;99501.56;;;7.87;78.59
69402;BME280;56589;51.992;5.924;2023-03-25T05:06:44;99497.16;;;7.87;78.31
69402;BME280;56589;51.992;5.924;2023-03-25T05:09:14;99488.47;;;7.87;78.39
69402;BME280;56589;51.992;5.924;2023-03-25T05:11:42;99494.66;;;7.86;78.32
69402;BME280;56589;51.992;5.924;2023-03-25T05:14:08;99496.31;;;7.87;78.24
69402;BME280;56589;51.992;5.924;2023-03-25T05:16:34;99500.59;;;7.88;78.16
69402;BME280;56589;51.992;5.924;2023-03-25T05:19:00;99493.72;;;7.87;77.91
69402;BME280;56589;51.992;5.924;2023-03-25T05:21:29;99490.97;;;7.88;78.01
69402;BME280;56589;51.992;5.924;2023-03-25T05:23:55;99501.34;;;7.90;78.08
69402;BME280;56589;51.992;5.924;2023-03-25T05:26:21;99508.94;;;7.93;77.59
69402;BME280;56589;51.992;5.924;2023-03-25T05:28:46;99507.88;;;7.96;77.89
69402;BME280;56589;51.992;5.924;2023-03-25T05:31:12;99505.38;;;7.94;77.42
69402;BME280;56589;51.992;5.924;2023-03-25T05:33:38;99498.97;;;7.98;77.33
69402;BME280;56589;51.992;5.924;2023-03-25T05:36:05;99491.84;;;8.00;77.52
69402;BME280;56589;51.992;5.924;2023-03-25T05:38:34;99493.63;;;8.00;77.29
69402;BME280;56589;51.992;5.924;2023-03-25T05:41:00;99484.25;;;7.97;77.59
69402;BME280;56589;51.992;5.924;2023-03-25T05:43:26;99495.66;;;7.96;77.12
69402;BME280;56589;51.992;5.924;2023-03-25T05:45:52;99502.44;;;7.99;77.37
69402;BME280;56589;51.992;5.924;2023-03-25T05:48:17;99504.41;;;7.95;77.27
69402;BME280;56589;51.992;5.924;2023-03-25T05:50:43;99523.53;;;7.96;77.38
69402;BME280;56589;51.992;5.924;2023-03-25T05:53:10;99520.00;;;7.97;77.30
69402;BME280;56589;51.992;5.924;2023-03-25T05:55:40;99527.94;;;7.95;77.13
69402;BME280;56589;51.992;5.924;2023-03-25T05:58:05;99527.84;;;7.97;77.53
69402;BME280;56589;51.992;5.924;2023-03-25T06:00:31;99522.50;;;7.98;77.05
69402;BME280;56589;51.992;5.924;2023-03-25T06:02:57;99535.69;;;7.97;77.49
69402;BME280;56589;51.992;5.924;2023-03-25T06:05:24;99536.41;;;7.99;77.21
69402;BME280;56589;51.992;5.924;2023-03-25T06:07:50;99530.22;;;8.00;77.22
69402;BME280;56589;51.992;5.924;2023-03-25T06:10:17;99541.63;;;7.99;77.62
69402;BME280;56589;51.992;5.924;2023-03-25T06:12:46;99544.38;;;7.97;77.44
69402;BME280;56589;51.992;5.924;2023-03-25T06:15:14;99542.59;;;7.98;77.36
69402;BME280;56589;51.992;5.924;2023-03-25T06:17:41;99544.97;;;8.01;77.56
69402;BME280;56589;51.992;5.924;2023-03-25T06:20:09;99536.28;;;8.00;77.66
69402;BME280;56589;51.992;5.924;2023-03-25T06:22:37;99538.31;;;7.97;77.53
69402;BME280;56589;51.992;5.924;2023-03-25T06:25:04;99538.41;;;7.95;78.10
69402;BME280;56589;51.992;5.924;2023-03-25T06:27:31;99546.47;;;7.92;77.93
69402;BME280;56589;51.992;5.924;2023-03-25T06:29:59;99543.03;;;7.92;77.95
69402;BME280;56589;51.992;5.924;2023-03-25T06:32:25;99552.66;;;7.91;78.22
69402;BME280;56589;51.992;5.924;2023-03-25T06:34:51;99550.03;;;7.91;78.43
69402;BME280;56589;51.992;5.924;2023-03-25T06:37:17;99546.47;;;7.92;78.32
69402;BME280;56589;51.992;5.924;2023-03-25T06:39:43;99546.59;;;7.91;78.41
69402;BME280;56589;51.992;5.924;2023-03-25T06:42:09;99559.53;;;7.92;78.19
69402;BME280;56589;51.992;5.924;2023-03-25T06:44:35;99563.63;;;7.96;78.41
69402;BME280;56589;51.992;5.924;2023-03-25T06:47:04;99560.75;;;7.99;78.53
69402;BME280;56589;51.992;5.924;2023-03-25T06:49:30;99552.78;;;8.01;78.47
69402;BME280;56589;51.992;5.924;2023-03-25T06:51:55;99558.03;;;8.01;78.48
69402;BME280;56589;51.992;5.924;2023-03-25T06:54:21;99565.53;;;8.05;78.16
69402;BME280;56589;51.992;5.924;2023-03-25T06:56:47;99564.47;;;8.08;78.15
69402;BME280;56589;51.992;5.924;2023-03-25T06:59:13;99565.09;;;8.11;77.94
69402;BME280;56589;51.992;5.924;2023-03-25T07:01:39;99564.03;;;8.14;77.51
69402;BME280;56589;51.992;5.924;2023-03-25T07:04:08;99570.09;;;8.14;77.72
69402;BME280;56589;51.992;5.924;2023-03-25T07:06:33;99562.97;;;8.17;77.66
69402;BME280;56589;51.992;5.924;2023-03-25T07:08:59;99560.25;;;8.18;77.61
69402;BME280;56589;51.992;5.924;2023-03-25T07:11:27;99560.94;;;8.20;77.47
69402;BME280;56589;51.992;5.924;2023-03-25T07:13:55;99560.75;;;8.23;77.28
69402;BME280;56589;51.992;5.924;2023-03-25T07:16:22;99555.19;;;8.28;77.55
69402;BME280;56589;51.992;5.924;2023-03-25T07:18:49;99555.19;;;8.39;77.54
69402;BME280;56589;51.992;5.924;2023-03-25T07:21:18;99558.78;;;8.49;77.26
69402;BME280;56589;51.992;5.924;2023-03-25T07:23:44;99556.66;;;8.54;76.32
69402;BME280;56589;51.992;5.924;2023-03-25T07:26:10;99545.03;;;8.58;76.13
69402;BME280;56589;51.992;5.924;2023-03-25T07:28:36;99563.81;;;8.63;76.09
69402;BME280;56589;51.992;5.924;2023-03-25T07:31:05;99567.28;;;8.64;76.02
69402;BME280;56589;51.992;5.924;2023-03-25T07:33:31;99569.41;;;8.59;76.00
69402;BME280;56589;51.992;5.924;2023-03-25T07:35:57;99568.94;;;8.54;76.45
69402;BME280;56589;51.992;5.924;2023-03-25T07:38:26;99576.41;;;8.47;76.68
69402;BME280;56589;51.992;5.924;2023-03-25T07:40:52;99585.41;;;8.43;nan
69402;BME280;56589;51.992;5.924;2023-03-25T07:43:18;99581.34;;;8.39;76.52
69402;BME280;56589;51.992;5.924;2023-03-25T07:45:46;99578.13;;;8.35;76.63
69402;BME280;56589;51.992;5.924;2023-03-25T07:48:12;99589.56;;;8.34;76.74
69402;BME280;56589;51.992;5.924;2023-03-25T07:50:38;99580.03;;;8.33;76.92
69402;BME280;56589;51.992;5.924;2023-03-25T07:53:04;99578.47;;;8.31;77.00
69402;BME280;56589;51.992;5.924;2023-03-25T07:55:32;99579.44;;;8.30;77.08
69402;BME280;56589;51.992;5.924;2023-03-25T07:57:58;99583.13;;;8.27;77.35
69402;BME280;56589;51.992;5.924;2023-03-25T08:00:24;99592.63;;;8.28;77.56
69402;BME280;56589;51.992;5.924;2023-03-25T08:02:50;99594.88;;;8.33;77.64
69402;BME280;56589;51.992;5.924;2023-03-25T08:05:17;99586.09;;;8.34;77.17
69402;BME280;56589;51.992;5.924;2023-03-25T08:07:43;99592.88;;;8.36;77.46
69402;BME280;56589;51.992;5.924;2023-03-25T08:10:09;99594.91;;;8.44;78.01
69402;BME280;56589;51.992;5.924;2023-03-25T08:12:38;99598.66;;;8.53;77.56
69402;BME280;56589;51.992;5.924;2023-03-25T08:15:04;99598.19;;;8.59;77.53
69402;BME280;56589;51.992;5.924;2023-03-25T08:17:31;99613.53;;;8.63;77.19
69402;BME280;56589;51.992;5.924;2023-03-25T08:19:57;99617.09;;;8.62;77.52
69402;BME280;56589;51.992;5.924;2023-03-25T08:22:23;99613.06;;;8.58;77.34
69402;BME280;56589;51.992;5.924;2023-03-25T08:24:49;99618.75;;;8.52;77.36
69402;BME280;56589;51.992;5.924;2023-03-25T08:27:15;99610.91;;;8.52;78.05
69402;BME280;56589;51.992;5.924;2023-03-25T08:29:44;99615.19;;;8.53;77.95
69402;BME280;56589;51.992;5.924;2023-03-25T08:32:10;99615.22;;;8.64;78.53
69402;BME280;56589;51.992;5.924;2023-03-25T08:34:36;99604.03;;;8.74;78.20
69402;BME280;56589;51.992;5.924;2023-03-25T08:37:02;99616.78;;;8.78;77.82
69402;BME280;56589;51.992;5.924;2023-03-25T08:39:28;99612.41;;;8.79;77.75
69402;BME280;56589;51.992;5.924;2023-03-25T08:41:54;99620.72;;;8.84;78.01
69402;BME280;56589;51.992;5.924;2023-03-25T08:44:20;99606.22;;;8.91;77.66
69402;BME280;56589;51.992;5.924;2023-03-25T08:46:49;99613.50;;;8.99;77.72
69402;BME280;56589;51.992;5.924;2023-03-25T08:49:15;99607.09;;;9.03;77.55
69402;BME280;56589;51.992;5.924;2023-03-25T08:51:42;99617.66;;;9.12;77.33
69402;BME280;56589;51.992;5.924;2023-03-25T08:54:08;99602.00;;;9.23;77.27
69402;BME280;56589;51.992;5.924;2023-03-25T08:56:33;99609.38;;;9.41;77.41
69402;BME280;56589;51.992;5.924;2023-03-25T08:58:59;99613.19;;;9.59;77.01
69402;BME280;56589;51.992;5.924;2023-03-25T09:01:25;99630.34;;;9.74;76.95
69402;BME280;56589;51.992;5.924;2023-03-25T09:03:54;99623.88;;;9.79;76.07
69402;BME280;56589;51.992;5.924;2023-03-25T09:06:20;99630.69;;;9.81;76.70
69402;BME280;56589;51.992;5.924;2023-03-25T09:08:46;99622.19;;;9.89;76.64
69402;BME280;56589;51.992;5.924;2023-03-25T09:11:12;99618.50;;;9.91;76.20
69402;BME280;56589;51.992;5.924;2023-03-25T09:13:37;99626.97;;;9.84;75.99
69402;BME280;56589;51.992;5.924;2023-03-25T09:16:04;99622.84;;;9.70;76.02
69402;BME280;56589;51.992;5.924;2023-03-25T09:18:31;99614.97;;;9.59;76.36
69402;BME280;56589;51.992;5.924;2023-03-25T09:21:00;99614.75;;;9.51;76.25
69402;BME280;56589;51.992;5.924;2023-03-25T09:23:26;99610.94;;;9.43;76.68
69402;BME280;56589;51.992;5.924;2023-03-25T09:25:52;99618.91;;;9.42;76.85
69402;BME280;56589;51.992;5.924;2023-03-25T09:28:18;99606.63;;;9.42;76.59
69402;BME280;56589;51.992;5.924;2023-03-25T09:30:44;99611.66;;;9.45;76.73
69402;BME280;56589;51.992;5.924;2023-03-25T09:33:10;99616.63;;;9.48;76.31
69402;BME280;56589;51.992;5.924;2023-03-25T09:35:38;99630.69;;;9.47;76.29
69402;BME280;56589;51.992;5.924;2023-03-25T09:38:07;99628.44;;;9.43;76.16
69402;BME280;56589;51.992;5.924;2023-03-25T09:40:33;99624.03;;;9.32;76.13
69402;BME280;56589;51.992;5.924;2023-03-25T09:43:08;99616.38;;;9.18;76.63
69402;BME280;56589;51.992;5.924;2023-03-25T09:45:48;99615.53;;;9.06;76.86
69402;BME280;56589;51.992;5.924;2023-03-25T09:48:23;99623.75;;;9.02;77.50
69402;BME280;56589;51.992;5.924;2023-03-25T09:50:54;99623.38;;;9.06;78.18
69402;BME280;56589;51.992;5.924;2023-03-25T09:53:31;99616.88;;;9.23;78.11
69402;BME280;56589;51.992;5.924;2023-03-25T09:56:03;99640.34;;;9.36;77.85
69402;BME280;56589;51.992;5.924;2023-03-25T09:58:39;99639.38;;;9.37;77.30
69402;BME280;56589;51.992;5.924;2023-03-25T10:01:18;99639.84;;;9.31;77.17
69402;BME280;56589;51.992;5.924;2023-03-25T10:03:53;99635.47;;;9.31;77.90
69402;BME280;56589;51.992;5.924;2023-03-25T10:06:23;99631.66;;;9.35;78.06
69402;BME280;56589;51.992;5.924;2023-03-25T10:09:12;99617.13;;;9.65;78.71
69402;BME280;56589;51.992;5.924;2023-03-25T10:11:54;99631.72;;;10.01;78.27
69402;BME280;56589;51.992;5.924;2023-03-25T10:14:36;99637.22;;;10.30;77.81
69402;BME280;56589;51.992;5.924;2023-03-25T10:17:24;99641.69;;;10.50;77.16
69402;BME280;56589;51.992;5.924;2023-03-25T10:20:06;99647.72;;;10.62;76.63
69402;BME280;56589;51.992;5.924;2023-03-25T10:22:52;99642.16;;;10.76;75.93
69402;BME280;56589;51.992;5.924;2023-03-25T10:25:34;99645.44;;;10.90;76.07
69402;BME280;56589;51.992;5.924;2023-03-25T10:28:04;99645.91;;;10.95;75.00
69402;BME280;56589;51.992;5.924;2023-03-25T10:30:39;99650.50;;;11.02;74.93
69402;BME280;56589;51.992;5.924;2023-03-25T10:33:15;99648.06;;;11.10;75.20
69402;BME280;56589;51.992;5.924;2023-03-25T10:35:49;99654.09;;;11.22;75.38
69402;BME280;56589;51.992;5.924;2023-03-25T10:38:19;99646.97;;;11.34;74.49
69402;BME280;56589;51.992;5.924;2023-03-25T10:40:54;99658.56;;;11.31;73.94
69402;BME280;56589;51.992;5.924;2023-03-25T10:43:31;99671.75;;;11.20;73.35
69402;BME280;56589;51.992;5.924;2023-03-25T10:46:15;99652.34;;;10.91;73.62
69402;BME280;56589;51.992;5.924;2023-03-25T10:48:50;99657.75;;;10.57;74.13
69402;BME280;56589;51.992;5.924;2023-03-25T10:51:18;99655.66;;;10.40;75.60
69402;BME280;56589;51.992;5.924;2023-03-25T10:53:48;99662.84;;;10.38;75.99
69402;BME280;56589;51.992;5.924;2023-03-25T10:56:20;99669.06;;;10.37;75.87
69402;BME280;56589;51.992;5.924;2023-03-25T10:58:51;99660.13;;;10.28;75.69
69402;BME280;56589;51.992;5.924;2023-03-25T11:01:20;99675.94;;;10.06;76.10
69402;BME280;56589;51.992;5.924;2023-03-25T11:03:53;99659.47;;;9.92;76.62
69402;BME280;56589;51.992;5.924;2023-03-25T11:06:22;99676.16;;;9.91;76.95
69402;BME280;56589;51.992;5.924;2023-03-25T11:11:41;99669.00;;;10.04;76.97
69402;BME280;56589;51.992;5.924;2023-03-25T11:14:09;99666.63;;;10.01;76.46
69402;BME280;56589;51.992;5.924;2023-03-25T11:16:40;99665.09;;;9.99;76.53
69402;BME280;56589;51.992;5.924;2023-03-25T11:19:17;99664.59;;;10.05;77.11
69402;BME280;56589;51.992;5.924;2023-03-25T11:21:47;99665.16;;;10.20;76.90
69402;BME280;56589;51.992;5.924;2023-03-25T11:24:18;99660.13;;;10.28;75.35
69402;BME280;56589;51.992;5.924;2023-03-25T11:26:52;99665.97;;;10.32;75.31
69402;BME280;56589;51.992;5.924;2023-03-25T11:29:19;99680.63;;;10.34;75.58
69402;BME280;56589;51.992;5.924;2023-03-25T11:32:05;99680.88;;;10.31;75.37
69402;BME280;56589;51.992;5.924;2023-03-25T11:34:37;99678.16;;;10.21;75.44
69402;BME280;56589;51.992;5.924;2023-03-25T11:37:06;99675.09;;;10.05;75.22
69402;BME280;56589;51.992;5.924;2023-03-25T11:39:40;99680.00;;;9.87;75.78
69402;BME280;56589;51.992;5.924;2023-03-25T11:42:25;99667.03;;;9.74;76.55
69402;BME280;56589;51.992;5.924;2023-03-25T11:44:56;99686.44;;;9.72;76.72
69402;BME280;56589;51.992;5.924;2023-03-25T11:47:25;99671.88;;;9.79;76.53
69402;BME280;56589;51.992;5.924;2023-03-25T11:49:56;99652.84;;;9.88;76.08
69402;BME280;56589;51.992;5.924;2023-03-25T11:52:24;99670.34;;;9.99;75.87
69402;BME280;56589;51.992;5.924;2023-03-25T11:54:54;99678.91;;;10.12;74.70
69402;BME280;56589;51.992;5.924;2023-03-25T11:57:27;99690.06;;;10.25;73.96
69402;BME280;56589;51.992;5.924;2023-03-25T12:00:04;99682.75;;;10.40;72.97
69402;BME280;56589;51.992;5.924;2023-03-25T12:02:36;99667.94;;;10.50;70.83
69402;BME280;56589;51.992;5.924;2023-03-25T12:05:11;99686.50;;;10.58;72.57
69402;BME280;56589;51.992;5.924;2023-03-25T12:07:43;99674.44;;;10.67;72.15
69402;BME280;56589;51.992;5.924;2023-03-25T12:10:17;99683.09;;;10.79;72.35
69402;BME280;56589;51.992;5.924;2023-03-25T12:12:56;99681.97;;;10.93;72.31
69402;BME280;56589;51.992;5.924;2023-03-25T12:15:35;99679.72;;;11.09;72.18
69402;BME280;56589;51.992;5.924;2023-03-25T12:18:19;99679.53;;;11.22;71.70
69402;BME280;56589;51.992;5.924;2023-03-25T12:21:03;99666.25;;;11.23;71.16
69402;BME280;56589;51.992;5.924;2023-03-25T12:23:47;99648.31;;;11.28;70.47
69402;BME280;56589;51.992;5.924;2023-03-25T12:26:31;99660.47;;;11.29;70.71
69402;BME280;56589;51.992;5.924;2023-03-25T12:29:22;99647.28;;;11.50;70.84
69402;BME280;56589;51.992;5.924;2023-03-25T12:32:00;99661.75;;;11.66;68.81
69402;BME280;56589;51.992;5.924;2023-03-25T12:34:48;99659.06;;;11.56;69.56
69402;BME280;56589;51.992;5.924;2023-03-25T12:37:30;99658.63;;;11.51;70.16
69402;BME280;56589;51.992;5.924;2023-03-25T12:40:23;99635.59;;;11.33;67.77
69402;BME280;56589;51.992;5.924;2023-03-25T12:43:02;99662.50;;;11.16;70.16
69402;BME280;56589;51.992;5.924;2023-03-25T12:45:46;99665.06;;;11.06;69.60
69402;BME280;56589;51.992;5.924;2023-03-25T12:48:42;99671.53;;;10.70;70.50
69402;BME280;56589;51.992;5.924;2023-03-25T12:51:35;99665.00;;;10.33;70.88
69402;BME280;56589;51.992;5.924;2023-03-25T12:54:22;99675.59;;;9.99;72.38
69402;BME280;56589;51.992;5.924;2023-03-25T12:57:04;99678.81;;;9.69;73.15
69402;BME280;56589;51.992;5.924;2023-03-25T12:59:53;99679.28;;;9.40;73.73
69402;BME280;56589;51.992;5.924;2023-03-25T13:02:49;99671.66;;;9.26;74.02
69402;BME280;56589;51.992;5.924;2023-03-25T13:05:45;99673.16;;;9.17;74.27
69402;BME280;56589;51.992;5.924;2023-03-25T13:08:17;99678.03;;;9.11;74.28
69402;BME280;56589;51.992;5.924;2023-03-25T13:10:55;99672.91;;;9.09;74.33
69402;BME280;56589;51.992;5.924;2023-03-25T13:13:28;99672.56;;;9.14;74.80
69402;BME280;56589;51.992;5.924;2023-03-25T13:16:03;99678.81;;;9.35;75.81
69402;BME280;56589;51.992;5.924;2023-03-25T13:18:39;99677.53;;;9.63;75.78
69402;BME280;56589;51.992;5.924;2023-03-25T13:21:10;99664.84;;;10.02;75.87
69402;BME280;56589;51.992;5.924;2023-03-25T13:23:42;99674.66;;;10.32;75.12
69402;BME280;56589;51.992;5.924;2023-03-25T13:26:16;99684.75;;;10.48;74.61
69402;BME280;56589;51.992;5.924;2023-03-25T13:28:47;99673.63;;;10.55;74.03
69402;BME280;56589;51.992;5.924;2023-03-25T13:31:21;99669.22;;;10.56;73.61
69402;BME280;56589;51.992;5.924;2023-03-25T13:34:00;99683.16;;;10.56;73.55
69402;BME280;56589;51.992;5.924;2023-03-25T13:36:41;99685.88;;;10.66;73.15